Time;durP1;ratioP1;P1;durP2;ratioP2;P2;SDS_P1;SDS_P2;PMS_P1;PMS_P2;Temp;Humidity;BMP_temperature;BMP_pressure;BME280_temperature;BME280_humidity;BME280_pressure;Samples;Min_cycle;Max_cycle;Signal;HPM_P1;HPM_P2
2021/08/20 00:02:10;;;;;;;12.35;3.72;;;563.70;1408.00;;;;;;5094508;28;20055;-73
2021/08/20 00:04:36;;;;;;;14.30;3.70;;;563.70;1408.00;;;;;;5094473;28;20023;-74
2021/08/20 00:07:03;;;;;;;15.63;3.58;;;563.70;1408.00;;;;;;5093104;28;20036;-74
2021/08/20 00:09:29;;;;;;;10.13;4.13;;;563.70;1408.00;;;;;;5093060;28;20016;-74
2021/08/20 00:11:55;;;;;;;10.63;4.07;;;563.70;1408.00;;;;;;5094331;28;20027;-73
2021/08/20 00:14:21;;;;;;;13.07;3.97;;;563.60;1433.60;;;;;;5092876;28;20044;-74
2021/08/20 00:16:47;;;;;;;14.25;3.92;;;563.60;1433.60;;;;;;5092950;28;20089;-74
2021/08/20 00:19:13;;;;;;;15.48;4.18;;;563.60;1433.60;;;;;;5094181;28;20118;-74
2021/08/20 00:21:40;;;;;;;13.80;3.92;;;563.60;1433.60;;;;;;5094139;28;20074;-73
2021/08/20 00:24:07;;;;;;;8.35;3.80;;;563.60;1433.60;;;;;;5094050;28;20064;-74
2021/08/20 00:26:33;;;;;;;8.80;3.88;;;563.60;1433.60;;;;;;5092821;28;20036;-74
2021/08/20 00:28:59;;;;;;;15.27;4.60;;;563.60;1433.60;;;;;;5094172;28;20042;-74
2021/08/20 00:31:25;;;;;;;10.60;3.85;;;563.50;1433.60;;;;;;5094109;28;20020;-75
2021/08/20 00:33:51;;;;;;;9.80;3.95;;;563.60;1408.00;;;;;;5094031;28;20016;-74
2021/08/20 00:36:17;;;;;;;15.20;4.00;;;563.60;1408.00;;;;;;5092677;28;20031;-75
2021/08/20 00:38:43;;;;;;;10.85;3.83;;;563.50;1433.60;;;;;;5094314;28;20047;-74
2021/08/20 00:41:11;;;;;;;9.57;4.32;;;563.40;1433.60;;;;;;5094153;28;20346;-75
2021/08/20 00:43:41;;;;;;;10.43;4.20;;;563.40;1459.20;;;;;;5093790;28;20027;-75
2021/08/20 00:46:07;;;;;;;15.52;3.80;;;563.30;1459.20;;;;;;5093748;28;20020;-74
2021/08/20 00:48:33;;;;;;;16.48;4.10;;;563.30;1459.20;;;;;;5093744;28;20457;-75
2021/08/20 00:51:36;;;;;;;11.13;3.90;;;563.30;1433.60;;;;;;5092442;28;20492;-75
2021/08/20 00:54:08;;;;;;;14.40;4.28;;;563.30;1433.60;;;;;;5031592;28;20037;-75
2021/08/20 00:56:34;;;;;;;9.32;4.03;;;563.30;1433.60;;;;;;5031459;28;20087;-73
2021/08/20 00:59:02;;;;;;;9.48;3.67;;;563.20;1433.60;;;;;;5014924;28;20430;-74
2021/08/20 01:01:28;;;;;;;10.07;4.07;;;563.30;1433.60;;;;;;5031393;28;20021;-74
2021/08/20 01:03:54;;;;;;;13.75;4.28;;;563.20;1433.60;;;;;;5014821;28;20030;-75
2021/08/20 01:06:19;;;;;;;10.43;4.07;;;563.20;1433.60;;;;;;5014782;28;20025;-74
2021/08/20 01:08:45;;;;;;;11.45;3.72;;;563.20;1433.60;;;;;;5031340;28;20030;-75
2021/08/20 01:11:12;;;;;;;10.55;4.00;;;563.20;1433.60;;;;;;5031443;28;20089;-74
2021/08/20 01:13:40;;;;;;;10.13;4.03;;;563.20;1433.60;;;;;;5022732;28;20491;-74
2021/08/20 01:16:07;;;;;;;9.60;3.70;;;538.50;1408.00;;;;;;5011570;28;20431;-75
2021/08/20 01:18:35;;;;;;;8.85;3.78;;;538.40;1433.60;;;;;;5011492;28;20506;-75
2021/08/20 01:21:05;;;;;;;13.95;3.70;;;538.40;1408.00;;;;;;5011503;28;20030;-74
2021/08/20 01:23:31;;;;;;;9.57;3.75;;;538.40;1408.00;;;;;;5011505;28;20037;-75
2021/08/20 01:25:57;;;;;;;13.98;3.78;;;538.40;1433.60;;;;;;5011389;28;20115;-74
2021/08/20 01:28:24;;;;;;;9.13;3.40;;;538.40;1433.60;;;;;;4994967;28;20030;-75
2021/08/20 01:31:01;;;;;;;10.98;3.72;;;538.30;1433.60;;;;;;5053118;28;20028;-74
2021/08/20 01:33:28;;;;;;;11.18;3.95;;;538.30;1433.60;;;;;;5051836;28;20036;-75
2021/08/20 01:35:54;;;;;;;11.63;4.28;;;538.20;1433.60;;;;;;5053037;28;20025;-74
2021/08/20 01:38:20;;;;;;;8.20;4.13;;;538.20;1433.60;;;;;;5051712;28;20036;-75
2021/08/20 01:40:46;;;;;;;13.95;4.38;;;538.20;1433.60;;;;;;5053021;28;20018;-75
2021/08/20 01:43:12;;;;;;;12.50;3.85;;;538.20;1433.60;;;;;;5051704;28;20017;-75
2021/08/20 01:45:38;;;;;;;13.20;3.42;;;538.20;1433.60;;;;;;5052945;28;20382;-74
2021/08/20 01:48:04;;;;;;;8.40;3.85;;;538.20;1433.60;;;;;;5052906;28;20033;-74
2021/08/20 01:50:31;;;;;;;13.65;4.05;;;538.10;1433.60;;;;;;5051646;28;20021;-74
2021/08/20 01:52:57;;;;;;;17.02;4.20;;;538.10;1433.60;;;;;;5051546;28;20033;-75
2021/08/20 01:55:22;;;;;;;11.25;4.30;;;538.00;1433.60;;;;;;5051657;28;20025;-75
2021/08/20 01:57:50;;;;;;;17.35;4.63;;;538.00;1433.60;;;;;;5052855;28;20075;-75
2021/08/20 02:00:16;;;;;;;13.25;4.95;;;537.90;1433.60;;;;;;5052881;28;20025;-75
2021/08/20 02:02:42;;;;;;;12.23;4.22;;;537.90;1433.60;;;;;;5052809;28;20021;-75
2021/08/20 02:05:08;;;;;;;7.22;4.05;;;537.80;1433.60;;;;;;5052849;28;20050;-74
2021/08/20 02:07:38;;;;;;;8.27;4.35;;;537.70;1433.60;;;;;;5052631;28;20040;-75
2021/08/20 02:10:06;;;;;;;8.77;3.90;;;537.70;1433.60;;;;;;5052817;28;20024;-75
2021/08/20 02:12:32;;;;;;;7.65;4.05;;;537.70;1433.60;;;;;;5052697;28;20025;-76
2021/08/20 02:14:57;;;;;;;13.93;4.55;;;537.70;1433.60;;;;;;5093761;28;20076;-76
2021/08/20 02:17:23;;;;;;;13.43;4.18;;;537.60;1433.60;;;;;;5096761;28;20113;-75
2021/08/20 02:19:49;;;;;;;9.68;4.25;;;537.60;1433.60;;;;;;5096411;28;20016;-74
2021/08/20 02:22:16;;;;;;;7.85;4.07;;;537.70;1433.60;;;;;;5096462;28;20056;-74
2021/08/20 02:24:42;;;;;;;6.63;3.95;;;537.70;1433.60;;;;;;5096399;28;20042;-75
2021/08/20 02:27:08;;;;;;;11.05;4.43;;;537.60;1433.60;;;;;;5096198;28;20482;-74
2021/08/20 02:29:34;;;;;;;10.95;4.85;;;537.60;1433.60;;;;;;5094985;28;20024;-74
2021/08/20 02:32:00;;;;;;;10.40;5.20;;;537.60;1433.60;;;;;;5096728;28;20020;-75
2021/08/20 02:34:26;;;;;;;12.27;5.30;;;537.60;1433.60;;;;;;5096143;28;20044;-75
2021/08/20 02:36:52;;;;;;;8.20;4.65;;;537.60;1433.60;;;;;;5094828;28;20024;-75
2021/08/20 02:39:17;;;;;;;12.57;4.68;;;537.60;1433.60;;;;;;5096212;28;20507;-75
2021/08/20 02:41:43;;;;;;;13.02;4.60;;;512.90;1408.00;;;;;;5094828;28;20089;-75
2021/08/20 02:44:09;;;;;;;9.55;4.53;;;512.90;1433.60;;;;;;5094751;28;20052;-75
2021/08/20 02:46:37;;;;;;;10.10;4.90;;;512.90;1433.60;;;;;;5095904;28;20031;-75
2021/08/20 02:49:03;;;;;;;8.80;4.80;;;512.90;1433.60;;;;;;5095955;28;20383;-75
2021/08/20 02:51:28;;;;;;;12.15;5.22;;;512.90;1433.60;;;;;;5096008;28;20032;-75
2021/08/20 02:53:54;;;;;;;10.20;5.00;;;512.80;1433.60;;;;;;5096216;28;20099;-75
2021/08/20 02:56:21;;;;;;;13.93;5.45;;;512.80;1433.60;;;;;;5095921;28;20552;-76
2021/08/20 02:58:47;;;;;;;12.95;5.85;;;512.80;1433.60;;;;;;5096134;28;20028;-74
2021/08/20 03:01:14;;;;;;;15.57;6.78;;;512.80;1433.60;;;;;;5094440;28;20020;-75
2021/08/20 03:03:40;;;;;;;13.20;5.95;;;512.80;1433.60;;;;;;5094434;28;20032;-75
2021/08/20 03:06:06;;;;;;;14.48;6.57;;;512.80;1433.60;;;;;;5095537;28;20024;-74
2021/08/20 03:08:32;;;;;;;13.68;5.90;;;512.70;1433.60;;;;;;5095608;28;20162;-74
2021/08/20 03:10:58;;;;;;;12.75;5.75;;;512.70;1433.60;;;;;;5095814;28;20020;-75
2021/08/20 03:13:24;;;;;;;9.20;5.38;;;512.80;1433.60;;;;;;5095370;28;20438;-75
2021/08/20 03:15:49;;;;;;;19.38;5.72;;;512.70;1433.60;;;;;;5095476;28;20020;-74
2021/08/20 03:18:16;;;;;;;13.07;6.07;;;512.70;1433.60;;;;;;5095751;28;20107;-74
2021/08/20 03:20:42;;;;;;;12.48;5.80;;;512.60;1459.20;;;;;;5095355;28;20023;-75
2021/08/20 03:23:08;;;;;;;14.18;5.60;;;512.50;1459.20;;;;;;5095325;28;20020;-74
2021/08/20 03:25:34;;;;;;;9.93;6.13;;;512.50;1459.20;;;;;;5094395;28;20100;-75
2021/08/20 03:28:04;;;;;;;16.60;9.27;;;512.50;1459.20;;;;;;5095027;28;20038;-75
2021/08/20 03:30:30;;;;;;;13.82;7.70;;;512.50;1459.20;;;;;;5095223;28;20023;-74
2021/08/20 03:32:56;;;;;;;16.38;6.18;;;512.40;1459.20;;;;;;5093805;28;20123;-75
2021/08/20 03:35:22;;;;;;;16.90;6.75;;;512.40;1459.20;;;;;;5094902;28;20090;-74
2021/08/20 03:37:48;;;;;;;18.83;6.50;;;512.40;1459.20;;;;;;5094841;28;20122;-75
2021/08/20 03:40:14;;;;;;;14.70;6.60;;;512.30;1484.80;;;;;;5093521;28;20027;-75
2021/08/20 03:42:39;;;;;;;16.83;6.63;;;512.30;1459.20;;;;;;5094853;28;20095;-74
2021/08/20 03:45:06;;;;;;;13.77;5.90;;;512.20;1459.20;;;;;;5095022;28;20145;-74
2021/08/20 03:47:34;;;;;;;12.43;5.82;;;512.20;1484.80;;;;;;5093297;28;20032;-74
2021/08/20 03:50:02;;;;;;;12.27;5.95;;;512.10;1484.80;;;;;;5094590;28;20153;-75
2021/08/20 03:52:28;;;;;;;20.40;6.60;;;512.10;1459.20;;;;;;5093444;28;20027;-75
2021/08/20 03:54:53;;;;;;;15.73;6.28;;;512.10;1459.20;;;;;;5093410;28;20372;-74
2021/08/20 03:57:19;;;;;;;16.98;7.18;;;512.10;1459.20;;;;;;5094643;28;20169;-74
2021/08/20 03:59:45;;;;;;;18.83;6.80;;;512.10;1459.20;;;;;;5093328;28;20476;-75
2021/08/20 04:02:11;;;;;;;12.98;5.97;;;512.10;1459.20;;;;;;5094594;28;20031;-75
2021/08/20 04:04:37;;;;;;;19.17;6.82;;;512.10;1459.20;;;;;;5094536;28;20031;-74
2021/08/20 04:07:03;;;;;;;12.82;6.18;;;512.10;1459.20;;;;;;5094421;28;20473;-74
2021/08/20 04:09:29;;;;;;;25.17;7.05;;;512.10;1459.20;;;;;;5093159;28;20097;-74
2021/08/20 04:11:55;;;;;;;13.38;6.07;;;512.10;1459.20;;;;;;5093129;28;20028;-74
2021/08/20 04:14:21;;;;;;;23.88;6.80;;;512.10;1459.20;;;;;;5094247;28;20052;-75
2021/08/20 04:16:47;;;;;;;17.48;7.35;;;512.10;1459.20;;;;;;5094555;28;20108;-75
2021/08/20 04:19:13;;;;;;;14.07;7.10;;;512.10;1459.20;;;;;;5094243;28;20028;-74
2021/08/20 04:21:39;;;;;;;18.15;6.82;;;512.10;1459.20;;;;;;5092906;28;20115;-75
2021/08/20 04:24:06;;;;;;;20.95;6.68;;;512.10;1459.20;;;;;;5094160;28;20103;-75
2021/08/20 04:26:32;;;;;;;18.05;6.60;;;512.10;1459.20;;;;;;5092780;28;20034;-76
2021/08/20 04:28:58;;;;;;;16.92;6.50;;;512.10;1459.20;;;;;;5092789;28;20118;-74
2021/08/20 04:31:24;;;;;;;18.08;6.32;;;512.10;1459.20;;;;;;5092716;28;20024;-75
2021/08/20 04:33:50;;;;;;;14.20;7.03;;;512.10;1459.20;;;;;;5093994;28;20024;-74
2021/08/20 04:36:16;;;;;;;16.27;6.90;;;512.10;1459.20;;;;;;5093964;28;20380;-74
2021/08/20 04:38:43;;;;;;;16.48;6.38;;;512.20;1459.20;;;;;;5093585;28;20026;-74
2021/08/20 04:41:09;;;;;;;17.98;6.93;;;512.20;1459.20;;;;;;5093688;28;20035;-75
2021/08/20 04:43:36;;;;;;;16.83;6.72;;;512.20;1459.20;;;;;;5093831;28;20044;-75
2021/08/20 04:46:02;;;;;;;28.25;7.75;;;512.30;1459.20;;;;;;5093761;28;20411;-74
2021/08/20 04:48:28;;;;;;;24.55;6.82;;;512.30;1459.20;;;;;;5093741;28;20544;-75
2021/08/20 04:50:54;;;;;;;20.30;7.25;;;512.30;1459.20;;;;;;5093620;28;20423;-75
2021/08/20 04:53:22;;;;;;;24.80;7.30;;;512.30;1459.20;;;;;;5093684;28;20024;-75
2021/08/20 04:55:48;;;;;;;20.35;7.05;;;512.30;1459.20;;;;;;5092378;28;20028;-73
2021/08/20 04:58:13;;;;;;;25.92;7.00;;;512.30;1459.20;;;;;;5093686;28;20095;-74
2021/08/20 05:00:45;;;;;;;29.88;7.85;;;512.40;1459.20;;;;;;5092287;28;20031;-74
2021/08/20 05:03:12;;;;;;;16.27;7.53;;;512.40;1433.60;;;;;;5092422;28;20477;-75
2021/08/20 05:05:41;;;;;;;27.75;7.07;;;512.40;1459.20;;;;;;5092387;28;20020;-75
2021/08/20 05:08:07;;;;;;;26.17;7.30;;;512.40;1459.20;;;;;;5092017;28;20132;-75
2021/08/20 05:10:32;;;;;;;112.65;10.82;;;512.50;1459.20;;;;;;5092813;28;20020;-74
2021/08/20 05:12:58;;;;;;;30.38;8.02;;;512.50;1459.20;;;;;;5091899;28;20040;-75
2021/08/20 05:15:27;;;;;;;15.95;6.68;;;512.50;1459.20;;;;;;5092241;28;20028;-75
2021/08/20 05:17:54;;;;;;;21.00;7.75;;;512.50;1459.20;;;;;;5093262;28;20023;-75
2021/08/20 05:20:20;;;;;;;18.52;6.63;;;512.60;1459.20;;;;;;5093714;28;20016;-74
2021/08/20 05:22:52;;;;;;;15.60;6.55;;;512.60;1459.20;;;;;;5092163;28;20565;-75
2021/08/20 05:25:19;;;;;;;14.52;6.80;;;512.60;1459.20;;;;;;5093447;28;20357;-74
2021/08/20 05:27:45;;;;;;;15.75;6.95;;;512.70;1459.20;;;;;;5093260;28;20435;-74
2021/08/20 05:30:12;;;;;;;26.15;7.38;;;512.70;1459.20;;;;;;5093326;28;20043;-74
2021/08/20 05:32:38;;;;;;;22.90;7.15;;;512.80;1459.20;;;;;;5092055;28;20097;-74
2021/08/20 05:35:09;;;;;;;24.63;7.07;;;512.80;1459.20;;;;;;5093318;28;20028;-75
2021/08/20 05:37:35;;;;;;;16.35;6.70;;;512.90;1459.20;;;;;;5093615;28;20408;-75
2021/08/20 05:40:01;;;;;;;16.25;6.70;;;512.90;1459.20;;;;;;5093520;28;20424;-74
2021/08/20 05:42:27;;;;;;;13.65;5.95;;;512.90;1459.20;;;;;;5092328;28;20078;-74
2021/08/20 05:44:53;;;;;;;20.17;6.75;;;537.60;1484.80;;;;;;5093205;28;20477;-75
2021/08/20 05:47:19;;;;;;;13.68;5.90;;;537.60;1484.80;;;;;;5093086;28;20032;-74
2021/08/20 05:49:45;;;;;;;12.10;5.70;;;537.60;1484.80;;;;;;5093450;28;20055;-75
2021/08/20 05:52:11;;;;;;;10.98;5.70;;;537.70;1459.20;;;;;;5097053;28;20032;-74
2021/08/20 05:54:37;;;;;;;14.38;5.97;;;537.70;1484.80;;;;;;5097012;28;20052;-74
2021/08/20 05:57:03;;;;;;;14.55;5.60;;;537.80;1459.20;;;;;;5097271;28;20028;-74
2021/08/20 05:59:29;;;;;;;17.83;5.70;;;537.80;1459.20;;;;;;5095607;28;20023;-74
2021/08/20 06:01:55;;;;;;;11.32;5.78;;;537.80;1459.20;;;;;;5096948;28;20028;-74
2021/08/20 06:04:21;;;;;;;11.93;5.07;;;537.90;1459.20;;;;;;5096838;28;20030;-74
2021/08/20 06:06:47;;;;;;;12.15;4.85;;;537.90;1459.20;;;;;;5096855;28;20115;-74
2021/08/20 06:09:13;;;;;;;12.35;4.82;;;538.00;1459.20;;;;;;5096747;28;20031;-74
2021/08/20 06:11:39;;;;;;;10.52;4.95;;;538.10;1459.20;;;;;;5096704;28;20020;-74
2021/08/20 06:14:05;;;;;;;9.32;4.53;;;538.10;1459.20;;;;;;5096403;28;20493;-74
2021/08/20 06:16:30;;;;;;;9.07;4.82;;;538.20;1433.60;;;;;;5096840;28;20043;-73
2021/08/20 06:18:56;;;;;;;10.15;5.18;;;538.20;1433.60;;;;;;5096468;28;20476;-74
2021/08/20 06:21:22;;;;;;;12.85;5.13;;;538.30;1459.20;;;;;;5096822;28;20031;-74
2021/08/20 06:23:49;;;;;;;7.80;4.30;;;538.40;1433.60;;;;;;5096754;28;20028;-74
2021/08/20 06:26:15;;;;;;;10.52;4.72;;;538.50;1433.60;;;;;;5095021;28;20384;-74
2021/08/20 06:28:41;;;;;;;6.90;4.20;;;563.20;1433.60;;;;;;5095065;28;20031;-74
2021/08/20 06:31:07;;;;;;;10.52;3.90;;;563.30;1433.60;;;;;;5096559;28;20419;-74
2021/08/20 06:33:34;;;;;;;6.32;2.45;;;563.50;1408.00;;;;;;5096358;28;20028;-74
2021/08/20 06:36:00;;;;;;;9.52;3.08;;;588.80;1356.80;;;;;;5094971;28;20047;-74
2021/08/20 06:38:26;;;;;;;9.98;2.85;;;589.70;1280.00;;;;;;5095067;28;20024;-76
2021/08/20 06:40:52;;;;;;;6.80;2.75;;;614.80;1203.20;;;;;;5094833;28;20135;-76
2021/08/20 06:43:19;;;;;;;12.52;3.58;;;615.20;1203.20;;;;;;5096359;28;20403;-76
2021/08/20 06:45:45;;;;;;;7.95;3.45;;;615.30;1203.20;;;;;;5096046;28;20028;-76
2021/08/20 06:48:11;;;;;;;9.93;3.30;;;615.20;1203.20;;;;;;5094654;28;20043;-75
2021/08/20 06:50:37;;;;;;;18.33;3.50;;;615.10;1203.20;;;;;;5094758;28;20389;-76
2021/08/20 06:53:03;;;;;;;7.85;2.55;;;615.00;1203.20;;;;;;5095957;28;20036;-76
2021/08/20 06:55:34;;;;;;;12.07;4.30;;;614.90;1228.80;;;;;;5095869;28;20469;-76
2021/08/20 06:58:00;;;;;;;8.60;3.63;;;614.90;1254.40;;;;;;5094551;28;20031;-75
2021/08/20 07:00:26;;;;;;;10.30;3.33;;;614.90;1228.80;;;;;;5095898;28;20031;-74
2021/08/20 07:02:52;;;;;;;8.85;3.70;;;614.90;1203.20;;;;;;5094452;28;20381;-75
2021/08/20 07:05:18;;;;;;;14.82;4.05;;;614.90;1203.20;;;;;;5096023;28;20052;-75
2021/08/20 07:07:45;;;;;;;8.27;3.33;;;615.00;1203.20;;;;;;5095522;28;20044;-75
2021/08/20 07:10:17;;;;;;;7.75;3.47;;;615.00;1228.80;;;;;;5095591;28;20082;-76
2021/08/20 07:12:44;;;;;;;7.53;3.28;;;615.00;1254.40;;;;;;5095503;28;20020;-77
2021/08/20 07:15:12;;;;;;;11.57;3.53;;;615.00;1254.40;;;;;;5094311;28;20070;-76
2021/08/20 07:17:39;;;;;;;8.93;3.45;;;615.10;1228.80;;;;;;5094156;28;20476;-76
2021/08/20 07:20:09;;;;;;;9.98;2.60;;;615.10;1254.40;;;;;;5095407;28;20020;-76
2021/08/20 07:22:35;;;;;;;6.45;2.30;;;615.20;1228.80;;;;;;5095608;28;20110;-76
2021/08/20 07:25:01;;;;;;;8.13;2.00;;;615.20;1228.80;;;;;;5094083;28;20028;-76
2021/08/20 07:27:27;;;;;;;6.63;1.35;;;615.20;1203.20;;;;;;5095199;28;20119;-76
2021/08/20 07:29:53;;;;;;;2.65;1.70;;;615.30;1177.60;;;;;;5093919;28;20495;-76
2021/08/20 07:32:19;;;;;;;3.90;2.10;;;615.30;1177.60;;;;;;5095237;28;20028;-76
2021/08/20 07:34:46;;;;;;;6.22;1.75;;;615.30;1177.60;;;;;;5093860;28;20058;-76
2021/08/20 07:37:12;;;;;;;3.05;1.70;;;640.00;1177.60;;;;;;5095092;28;20016;-75
2021/08/20 07:39:38;;;;;;;6.18;2.63;;;640.10;1203.20;;;;;;5095096;28;20021;-75
2021/08/20 07:42:05;;;;;;;8.73;2.75;;;640.10;1177.60;;;;;;5095321;28;20024;-75
2021/08/20 07:44:31;;;;;;;4.80;1.92;;;640.20;1177.60;;;;;;5095218;28;20095;-76
2021/08/20 07:46:57;;;;;;;4.95;2.20;;;640.20;1177.60;;;;;;5094822;28;20042;-75
2021/08/20 07:49:23;;;;;;;5.13;1.83;;;640.20;1152.00;;;;;;5095195;28;20020;-76
2021/08/20 07:51:49;;;;;;;3.33;1.90;;;640.20;1126.40;;;;;;5094886;28;20022;-73
2021/08/20 07:54:15;;;;;;;3.75;2.15;;;640.30;1152.00;;;;;;5094841;28;20103;-76
2021/08/20 07:56:41;;;;;;;2.75;1.60;;;640.30;1152.00;;;;;;5094733;28;20055;-76
2021/08/20 07:59:07;;;;;;;4.93;1.67;;;640.30;1152.00;;;;;;5094686;28;20477;-77
2021/08/20 08:01:33;;;;;;;4.35;1.83;;;640.30;1126.40;;;;;;5094646;28;20026;-76
2021/08/20 08:03:59;;;;;;;3.65;1.60;;;640.30;1126.40;;;;;;5094571;28;20023;-77
2021/08/20 08:06:26;;;;;;;6.70;2.00;;;640.50;1152.00;;;;;;5094395;28;20353;-74
2021/08/20 08:08:53;;;;;;;8.73;2.13;;;640.50;1152.00;;;;;;5094413;28;20085;-74
2021/08/20 08:11:19;;;;;;;2.72;1.42;;;640.50;1100.80;;;;;;5094038;28;20024;-73
2021/08/20 08:13:48;;;;;;;7.00;2.03;;;640.60;1100.80;;;;;;5092233;28;20047;-77
2021/08/20 08:16:14;;;;;;;7.22;1.75;;;640.60;1100.80;;;;;;5094277;28;20027;-76
2021/08/20 08:18:40;;;;;;;8.60;2.50;;;640.60;1100.80;;;;;;5092823;28;20419;-74
2021/08/20 08:21:06;;;;;;;8.93;2.05;;;640.60;1100.80;;;;;;5094006;28;20053;-73
2021/08/20 08:23:32;;;;;;;5.38;1.90;;;640.60;1075.20;;;;;;5094133;28;20051;-74
2021/08/20 08:25:58;;;;;;;2.72;1.60;;;640.60;1075.20;;;;;;5093967;28;20031;-73
2021/08/20 08:28:24;;;;;;;3.95;1.92;;;640.60;1075.20;;;;;;5093961;28;20036;-74
2021/08/20 08:30:51;;;;;;;8.07;2.25;;;640.60;1075.20;;;;;;5094242;28;20107;-73
2021/08/20 08:33:18;;;;;;;5.63;2.17;;;640.60;1100.80;;;;;;5092551;28;20027;-74
2021/08/20 08:35:45;;;;;;;6.18;1.90;;;640.60;1100.80;;;;;;5093791;28;20016;-74
2021/08/20 08:38:14;;;;;;;3.40;1.67;;;640.60;1075.20;;;;;;5093779;28;20027;-75
2021/08/20 08:40:44;;;;;;;4.22;1.50;;;640.60;1075.20;;;;;;5093774;28;20539;-75
2021/08/20 08:43:11;;;;;;;2.85;1.58;;;640.60;1049.60;;;;;;5094046;28;20082;-74
2021/08/20 08:45:38;;;;;;;2.88;1.58;;;640.60;1075.20;;;;;;5093637;28;20024;-74
2021/08/20 08:48:06;;;;;;;4.35;2.00;;;640.70;1075.20;;;;;;5092365;28;20036;-74
2021/08/20 08:50:33;;;;;;;6.18;1.65;;;640.70;1049.60;;;;;;5093865;28;20024;-73
2021/08/20 08:53:00;;;;;;;4.18;1.55;;;640.70;1049.60;;;;;;5093514;28;20055;-73
2021/08/20 08:55:26;;;;;;;4.00;1.60;;;640.70;1049.60;;;;;;5093465;28;20020;-74
2021/08/20 08:57:52;;;;;;;3.97;1.88;;;640.70;1075.20;;;;;;5093566;28;20028;-75
2021/08/20 09:00:38;;;;;;;2.55;1.35;;;640.80;1075.20;;;;;;5093919;28;20102;-76
2021/08/20 09:03:05;;;;;;;3.33;1.40;;;640.70;1075.20;;;;;;5093571;28;20358;-73
2021/08/20 09:05:51;;;;;;;6.18;1.75;;;640.70;1100.80;;;;;;5092263;28;20024;-76
2021/08/20 09:08:23;;;;;;;2.88;1.40;;;640.80;1049.60;;;;;;5093068;28;20046;-74
2021/08/20 09:10:55;;;;;;;4.97;1.40;;;640.80;1049.60;;;;;;5092588;28;20028;-74
2021/08/20 09:13:22;;;;;;;2.10;1.30;;;640.70;1049.60;;;;;;5092740;28;20040;-73
2021/08/20 09:16:06;;;;;;;7.00;1.80;;;640.70;1075.20;;;;;;5092837;28;20024;-74
2021/08/20 09:18:32;;;;;;;5.60;1.90;;;640.80;1024.00;;;;;;5092088;28;20044;-74
2021/08/20 09:20:57;;;;;;;13.23;2.05;;;640.80;1049.60;;;;;;5093480;28;20028;-75
2021/08/20 09:23:26;;;;;;;2.88;1.70;;;640.80;1024.00;;;;;;5093754;28;20031;-74
2021/08/20 09:25:53;;;;;;;2.10;1.33;;;640.80;1049.60;;;;;;5096302;28;20042;-73
2021/08/20 09:28:20;;;;;;;3.30;2.05;;;640.80;1075.20;;;;;;5097405;28;20109;-74
2021/08/20 09:30:55;;;;;;;4.97;1.75;;;640.90;1075.20;;;;;;5097344;28;20044;-73
2021/08/20 09:33:22;;;;;;;4.15;1.70;;;640.80;1126.40;;;;;;5094332;28;20024;-74
2021/08/20 09:36:02;;;;;;;3.17;1.73;;;640.90;1126.40;;;;;;5096961;28;20099;-74
2021/08/20 09:38:30;;;;;;;2.35;1.60;;;665.60;1100.80;;;;;;5096877;28;20012;-74
2021/08/20 09:41:10;;;;;;;8.43;2.13;;;665.70;1177.60;;;;;;5096799;28;20028;-72
2021/08/20 09:43:37;;;;;;;3.38;1.50;;;665.70;1075.20;;;;;;5094690;28;20103;-75
2021/08/20 09:46:05;;;;;;;6.20;1.65;;;665.70;1100.80;;;;;;5095882;28;20028;-74
2021/08/20 09:48:42;;;;;;;2.53;1.35;;;665.70;1075.20;;;;;;5096489;28;20427;-73
2021/08/20 09:51:11;;;;;;;2.53;1.42;;;665.70;1075.20;;;;;;5095964;28;20068;-72
2021/08/20 09:53:36;;;;;;;2.63;1.42;;;665.70;1049.60;;;;;;5096495;28;20032;-76
2021/08/20 09:56:06;;;;;;;3.65;1.60;;;665.70;1075.20;;;;;;5094409;28;20431;-74
2021/08/20 09:58:33;;;;;;;2.67;1.55;;;665.70;1075.20;;;;;;5096858;28;20022;-74
2021/08/20 10:01:04;;;;;;;4.97;1.38;;;665.70;1075.20;;;;;;5096813;28;20020;-74
2021/08/20 10:03:36;;;;;;;5.18;1.58;;;665.80;1049.60;;;;;;5096689;28;20027;-74
2021/08/20 10:06:04;;;;;;;2.72;1.63;;;665.80;1075.20;;;;;;5096687;28;20039;-74
2021/08/20 10:08:30;;;;;;;10.52;1.83;;;665.90;1075.20;;;;;;5096683;28;20038;-74
2021/08/20 10:10:57;;;;;;;7.07;1.50;;;665.90;1024.00;;;;;;5096674;28;20016;-74
2021/08/20 10:13:26;;;;;;;4.50;1.67;;;666.00;1024.00;;;;;;5095007;28;20044;-74
2021/08/20 10:15:55;;;;;;;3.92;1.70;;;666.00;1100.80;;;;;;5096490;28;20103;-74
2021/08/20 10:18:21;;;;;;;2.90;1.63;;;666.00;1049.60;;;;;;5094547;28;20077;-73
2021/08/20 10:20:49;;;;;;;4.32;1.80;;;666.00;998.40;;;;;;5095846;28;20020;-74
2021/08/20 10:23:15;;;;;;;3.13;1.92;;;666.10;1126.40;;;;;;5095147;28;20025;-73
2021/08/20 10:25:41;;;;;;;4.07;1.58;;;666.10;1100.80;;;;;;5096033;28;20494;-74
2021/08/20 10:28:11;;;;;;;2.90;1.75;;;666.10;1049.60;;;;;;5095800;28;20032;-73
2021/08/20 10:30:37;;;;;;;3.25;1.60;;;666.10;1049.60;;;;;;5094641;28;20565;-72
2021/08/20 10:33:07;;;;;;;2.90;1.52;;;666.20;1024.00;;;;;;5094916;28;20020;-73
2021/08/20 10:35:52;;;;;;;6.65;2.08;;;666.20;1049.60;;;;;;5094192;28;20042;-74
2021/08/20 10:38:30;;;;;;;2.95;1.60;;;666.30;1024.00;;;;;;5092406;28;20157;-74
2021/08/20 10:41:08;;;;;;;5.80;1.83;;;666.30;1049.60;;;;;;5092054;28;20012;-75
2021/08/20 10:43:59;;;;;;;2.65;1.40;;;666.30;1049.60;;;;;;5094851;28;20016;-73
2021/08/20 10:46:34;;;;;;;5.00;1.40;;;666.40;1024.00;;;;;;5093154;28;20046;-75
2021/08/20 10:51:49;;;;;;;7.32;1.60;;;666.40;1049.60;;;;;;5092025;28;20350;-75
2021/08/20 10:54:16;;;;;;;14.55;4.45;;;666.50;1126.40;;;;;;5093248;28;20024;-73
2021/08/20 10:56:42;;;;;;;16.48;7.32;;;691.30;1177.60;;;;;;5094395;28;20020;-72
2021/08/20 10:59:36;;;;;;;16.27;7.55;;;691.30;1049.60;;;;;;5092742;28;20028;-73
2021/08/20 11:02:23;;;;;;;430.02;216.68;;;691.40;1049.60;;;;;;5093739;28;20055;-76
2021/08/20 11:05:06;;;;;;;30.70;5.03;;;691.40;972.80;;;;;;5092021;28;20020;-73
2021/08/20 11:07:35;;;;;;;16.27;8.10;;;691.40;972.80;;;;;;5092270;28;20032;-74
2021/08/20 11:10:10;;;;;;;19.73;3.30;;;691.40;998.40;;;;;;5094013;28;20050;-73
2021/08/20 11:12:52;;;;;;;96.60;14.52;;;691.40;972.80;;;;;;5094075;28;20019;-73
2021/08/20 11:15:20;;;;;;;193.50;79.45;;;691.40;998.40;;;;;;5053639;28;20489;-74
2021/08/20 11:17:57;;;;;;;1564.57;606.10;;;691.30;972.80;;;;;;5055410;28;20025;-74
2021/08/20 11:20:33;;;;;;;1066.80;479.27;;;691.30;998.40;;;;;;5055083;28;20579;-73
2021/08/20 11:23:14;;;;;;;548.60;250.65;;;691.30;998.40;;;;;;5055115;28;20039;-74
2021/08/20 11:25:56;;;;;;;25.63;14.13;;;691.30;998.40;;;;;;5055437;28;20017;-73
2021/08/20 11:28:27;;;;;;;85.32;35.47;;;691.40;947.20;;;;;;5054976;28;20060;-73
2021/08/20 11:31:03;;;;;;;7.88;2.20;;;691.40;972.80;;;;;;5055046;28;20465;-72
2021/08/20 11:33:39;;;;;;;36.63;15.57;;;691.40;921.60;;;;;;5055038;28;20017;-73
2021/08/20 11:36:19;;;;;;;11.77;2.53;;;691.50;972.80;;;;;;5054897;28;20103;-73
2021/08/20 11:38:47;;;;;;;3.80;1.98;;;691.50;972.80;;;;;;5054812;28;20025;-72
2021/08/20 11:41:26;;;;;;;11.80;2.35;;;691.50;947.20;;;;;;5054760;28;20035;-72
2021/08/20 11:43:55;;;;;;;6.50;2.63;;;691.50;947.20;;;;;;5054039;28;20120;-73
2021/08/20 11:46:29;;;;;;;12.85;2.53;;;691.50;947.20;;;;;;5053644;28;20394;-74
2021/08/20 11:48:59;;;;;;;3.63;2.20;;;691.50;972.80;;;;;;5051936;28;20029;-73
2021/08/20 11:51:39;;;;;;;7.72;3.00;;;691.60;972.80;;;;;;5054170;28;20029;-72
2021/08/20 11:54:15;;;;;;;21.05;9.15;;;691.70;921.60;;;;;;5054841;28;20036;-73
2021/08/20 11:56:52;;;;;;;325.08;180.80;;;691.80;947.20;;;;;;5053753;28;20044;-73
2021/08/20 11:59:19;;;;;;;78.50;43.30;;;691.80;947.20;;;;;;5054127;28;20079;-73
2021/08/20 12:01:45;;;;;;;23.63;13.27;;;691.90;947.20;;;;;;5054169;28;20021;-74
2021/08/20 12:04:11;;;;;;;55.55;32.58;;;691.90;972.80;;;;;;5053827;28;20486;-73
2021/08/20 12:06:40;;;;;;;98.85;52.60;;;691.90;1024.00;;;;;;5053727;28;20521;-74
2021/08/20 12:09:14;;;;;;;27.83;16.50;;;691.90;972.80;;;;;;5051553;28;20062;-73
2021/08/20 12:11:48;;;;;;;401.83;203.32;;;691.90;972.80;;;;;;5053520;28;20017;-74
2021/08/20 12:14:21;;;;;;;285.52;180.43;;;691.90;947.20;;;;;;5080061;28;20062;-74
2021/08/20 12:16:52;;;;;;;13.20;6.75;;;691.90;947.20;;;;;;5091179;28;20020;-73
2021/08/20 12:19:29;;;;;;;13.35;6.95;;;692.00;947.20;;;;;;5094150;28;20110;-74